Time;durP1;ratioP1;P1;durP2;ratioP2;P2;SDS_P1;SDS_P2;PMS_P1;PMS_P2;Temp;Humidity;BMP_temperature;BMP_pressure;BME280_temperature;BME280_humidity;BME280_pressure;Samples;Min_cycle;Max_cycle;Signal;HPM_P1;HPM_P2
2021/09/07 00:00:53;;;;;;;13.30;11.23;;;17.10;99.90;;;;;;5033791;28;20490;-67
2021/09/07 00:03:19;;;;;;;16.67;12.10;;;17.10;99.90;;;;;;5033606;28;20741;-67
2021/09/07 00:05:44;;;;;;;14.20;12.17;;;17.00;99.90;;;;;;5033771;28;20593;-67
2021/09/07 00:08:10;;;;;;;12.90;11.60;;;17.10;99.90;;;;;;5033628;28;20163;-67
2021/09/07 00:10:35;;;;;;;15.03;12.43;;;17.10;99.90;;;;;;5033649;28;20255;-68
2021/09/07 00:13:01;;;;;;;15.10;12.23;;;17.00;99.90;;;;;;5033414;28;20195;-67
2021/09/07 00:15:26;;;;;;;14.50;10.90;;;17.00;99.90;;;;;;5033614;28;20255;-67
2021/09/07 00:17:52;;;;;;;14.80;11.73;;;17.00;99.90;;;;;;5033415;28;20166;-67
2021/09/07 00:20:18;;;;;;;12.40;11.10;;;17.00;99.90;;;;;;5033538;28;20249;-67
2021/09/07 00:22:43;;;;;;;15.27;12.20;;;17.00;99.90;;;;;;5033304;28;20195;-67
2021/09/07 00:25:10;;;;;;;12.90;11.07;;;17.00;99.90;;;;;;5033268;28;20194;-67
2021/09/07 00:27:36;;;;;;;15.10;11.40;;;17.00;99.90;;;;;;5033161;28;20656;-68
2021/09/07 00:30:03;;;;;;;14.40;12.17;;;17.00;99.90;;;;;;5033403;28;20443;-67
2021/09/07 00:32:28;;;;;;;14.10;11.53;;;17.00;99.90;;;;;;5032961;28;20590;-67
2021/09/07 00:34:54;;;;;;;13.37;11.00;;;16.90;99.90;;;;;;5033160;28;20413;-66
2021/09/07 00:37:19;;;;;;;15.20;13.10;;;16.90;99.90;;;;;;5033139;28;20504;-67
2021/09/07 00:39:45;;;;;;;13.87;11.63;;;16.90;99.90;;;;;;5033139;28;20247;-68
2021/09/07 00:42:10;;;;;;;13.40;11.60;;;16.90;99.90;;;;;;5033072;28;20178;-68
2021/09/07 00:44:36;;;;;;;15.27;10.70;;;16.90;99.90;;;;;;5033141;28;20195;-67
2021/09/07 00:47:07;;;;;;;11.70;10.30;;;16.90;99.90;;;;;;5015108;28;20205;-67
2021/09/07 00:49:33;;;;;;;13.30;11.47;;;16.90;99.90;;;;;;5033035;28;20170;-68
2021/09/07 00:51:59;;;;;;;15.20;11.33;;;16.90;99.90;;;;;;5032781;28;20415;-68
2021/09/07 00:54:28;;;;;;;13.83;11.80;;;16.80;99.90;;;;;;5032847;28;20452;-67
2021/09/07 00:56:54;;;;;;;16.50;11.57;;;16.80;99.90;;;;;;5032706;28;20424;-67
2021/09/07 00:59:21;;;;;;;14.20;11.33;;;16.90;99.90;;;;;;5032786;28;20417;-67
2021/09/07 01:01:48;;;;;;;11.77;10.47;;;16.90;99.90;;;;;;5032255;28;20425;-67
2021/09/07 01:04:13;;;;;;;16.87;12.43;;;16.80;99.90;;;;;;5032776;28;20833;-67
2021/09/07 01:06:39;;;;;;;13.37;10.53;;;16.80;99.90;;;;;;5014838;28;20432;-68
2021/09/07 01:09:06;;;;;;;11.83;10.57;;;16.80;99.90;;;;;;5032467;28;20237;-66
2021/09/07 01:11:32;;;;;;;15.60;12.23;;;16.80;99.90;;;;;;5032483;28;20620;-69
2021/09/07 01:13:57;;;;;;;13.13;11.77;;;16.80;99.90;;;;;;5031206;28;20544;-69
2021/09/07 01:16:23;;;;;;;16.03;11.60;;;16.80;99.90;;;;;;5032694;28;20175;-68
2021/09/07 01:18:49;;;;;;;13.87;11.73;;;16.70;99.90;;;;;;5032680;28;20265;-69
2021/09/07 01:21:15;;;;;;;14.20;10.80;;;16.70;99.90;;;;;;5032559;28;20443;-70
2021/09/07 01:23:43;;;;;;;18.00;11.97;;;16.60;99.90;;;;;;5032794;28;20396;-69
2021/09/07 01:26:15;;;;;;;12.30;10.43;;;16.60;99.90;;;;;;5032386;28;20786;-68
2021/09/07 01:28:41;;;;;;;15.20;12.13;;;16.60;99.90;;;;;;5032522;28;20397;-69
2021/09/07 01:31:07;;;;;;;14.10;11.33;;;16.50;99.90;;;;;;5032477;28;20424;-69
2021/09/07 01:33:34;;;;;;;17.07;10.77;;;16.40;99.90;;;;;;5032363;28;20423;-69
2021/09/07 01:36:01;;;;;;;18.80;14.40;;;16.40;99.90;;;;;;5032530;28;20755;-69
2021/09/07 01:38:28;;;;;;;14.23;11.40;;;16.30;99.90;;;;;;5032168;28;20409;-69
2021/09/07 01:40:54;;;;;;;14.57;11.80;;;16.30;99.90;;;;;;5032193;28;20440;-69
2021/09/07 01:43:19;;;;;;;16.37;12.93;;;16.20;99.90;;;;;;5032395;28;20984;-69
2021/09/07 01:45:49;;;;;;;14.20;12.20;;;16.20;99.90;;;;;;5032546;28;20409;-69
2021/09/07 01:48:16;;;;;;;18.00;12.50;;;16.10;99.90;;;;;;5032147;28;20585;-69
2021/09/07 01:50:42;;;;;;;16.40;12.13;;;16.10;99.90;;;;;;5032213;28;20415;-68
2021/09/07 01:53:08;;;;;;;16.73;12.70;;;16.00;99.90;;;;;;5031699;28;20440;-69
2021/09/07 01:55:33;;;;;;;15.40;11.87;;;16.00;99.90;;;;;;5032049;28;20412;-69
2021/09/07 01:57:59;;;;;;;16.00;12.57;;;16.00;99.90;;;;;;5032036;28;20177;-69
2021/09/07 02:00:24;;;;;;;17.07;11.80;;;16.00;99.90;;;;;;5032450;28;20557;-70
2021/09/07 02:02:50;;;;;;;18.67;12.63;;;15.90;99.90;;;;;;5032529;28;20218;-69
2021/09/07 02:05:15;;;;;;;18.33;12.20;;;15.90;99.90;;;;;;5032576;28;20203;-69
2021/09/07 02:07:41;;;;;;;14.97;11.90;;;15.90;99.90;;;;;;5032168;28;20168;-69
2021/09/07 02:10:07;;;;;;;18.37;14.23;;;15.80;99.90;;;;;;5032249;28;20260;-70
2021/09/07 02:12:33;;;;;;;18.07;15.07;;;15.80;99.90;;;;;;5031299;28;20266;-69
2021/09/07 02:14:59;;;;;;;15.50;12.17;;;15.70;99.90;;;;;;5031801;28;20902;-68
2021/09/07 02:17:24;;;;;;;18.80;14.27;;;15.70;99.90;;;;;;5031558;28;20258;-69
2021/09/07 02:19:51;;;;;;;15.37;13.47;;;15.70;99.90;;;;;;5031601;28;20174;-68
2021/09/07 02:22:17;;;;;;;15.97;12.93;;;15.60;99.90;;;;;;5031373;28;20167;-68
2021/09/07 02:24:42;;;;;;;16.70;13.03;;;15.60;99.90;;;;;;5031292;28;20772;-69
2021/09/07 02:27:08;;;;;;;15.60;11.93;;;15.50;99.90;;;;;;5031351;28;20169;-69
2021/09/07 02:29:34;;;;;;;13.30;10.73;;;15.50;99.90;;;;;;5031396;28;20169;-69
2021/09/07 02:31:59;;;;;;;17.03;11.73;;;15.50;99.90;;;;;;5031363;28;20163;-69
2021/09/07 02:34:25;;;;;;;18.43;13.43;;;15.40;99.90;;;;;;5031319;28;20423;-68
2021/09/07 02:36:50;;;;;;;14.47;12.17;;;15.40;99.90;;;;;;5031158;28;20169;-69
2021/09/07 02:39:16;;;;;;;17.10;11.57;;;15.30;99.90;;;;;;5031272;28;20258;-69
2021/09/07 02:41:41;;;;;;;15.00;12.90;;;15.30;99.90;;;;;;5031300;28;20176;-69
2021/09/07 02:44:07;;;;;;;17.87;12.80;;;15.30;99.90;;;;;;5031189;28;20204;-69
2021/09/07 02:46:32;;;;;;;15.03;12.43;;;15.30;99.90;;;;;;5031198;28;20647;-69
2021/09/07 02:48:58;;;;;;;15.30;13.37;;;15.30;99.90;;;;;;5031057;28;20179;-69
2021/09/07 02:51:23;;;;;;;16.03;13.83;;;15.30;99.90;;;;;;5031088;28;20169;-69
2021/09/07 02:53:48;;;;;;;17.17;13.20;;;15.20;99.90;;;;;;5030997;28;20249;-69
2021/09/07 02:56:14;;;;;;;18.17;13.50;;;15.20;99.90;;;;;;5031155;28;20176;-69
2021/09/07 02:58:40;;;;;;;18.50;12.70;;;15.10;99.90;;;;;;5030997;28;20183;-69
2021/09/07 03:01:06;;;;;;;17.37;12.90;;;15.10;99.90;;;;;;5031162;28;20180;-68
2021/09/07 03:03:33;;;;;;;21.40;13.40;;;15.10;99.90;;;;;;5031187;28;20475;-69
2021/09/07 03:05:59;;;;;;;16.60;13.40;;;15.10;99.90;;;;;;5031365;28;20181;-68
2021/09/07 03:08:24;;;;;;;19.77;14.23;;;15.10;99.90;;;;;;5031087;28;20456;-69
2021/09/07 03:10:50;;;;;;;19.47;13.90;;;15.00;99.90;;;;;;5031255;28;20406;-68
2021/09/07 03:13:15;;;;;;;23.10;14.50;;;15.00;99.90;;;;;;5030802;28;20192;-68
2021/09/07 03:15:41;;;;;;;37.47;15.63;;;14.90;99.90;;;;;;5030982;28;20650;-69
2021/09/07 03:18:08;;;;;;;17.90;14.33;;;14.90;99.90;;;;;;5030855;28;20183;-70
2021/09/07 03:20:33;;;;;;;17.23;13.40;;;14.90;99.90;;;;;;5030861;28;20678;-69
2021/09/07 03:22:58;;;;;;;16.90;13.07;;;14.90;99.90;;;;;;5031114;28;20438;-69
2021/09/07 03:25:24;;;;;;;16.70;14.23;;;14.80;99.90;;;;;;5034617;28;20204;-69
2021/09/07 03:27:49;;;;;;;14.07;12.57;;;14.80;99.90;;;;;;5034523;28;20180;-68
2021/09/07 03:30:15;;;;;;;18.00;14.50;;;14.70;99.90;;;;;;5034627;28;20201;-69
2021/09/07 03:32:40;;;;;;;17.23;13.30;;;14.70;99.90;;;;;;5034392;28;20163;-68
2021/09/07 03:35:07;;;;;;;22.87;15.43;;;14.70;99.90;;;;;;5034515;28;20172;-68
2021/09/07 03:37:32;;;;;;;19.43;13.63;;;14.60;99.90;;;;;;5034296;28;20174;-68
2021/09/07 03:39:58;;;;;;;19.00;14.17;;;14.60;99.90;;;;;;5034463;28;20411;-68
2021/09/07 03:42:24;;;;;;;20.37;14.30;;;14.60;99.90;;;;;;5034095;28;20168;-69
2021/09/07 03:44:50;;;;;;;18.93;15.30;;;14.50;99.90;;;;;;5034234;28;20727;-69
2021/09/07 03:47:15;;;;;;;15.50;13.90;;;14.50;99.90;;;;;;5034307;28;20537;-68
2021/09/07 03:49:41;;;;;;;19.43;14.97;;;14.50;99.90;;;;;;5034771;28;20168;-68
2021/09/07 03:52:07;;;;;;;17.07;14.67;;;14.50;99.90;;;;;;5034018;28;20167;-69
2021/09/07 03:54:34;;;;;;;15.40;13.40;;;14.50;99.90;;;;;;5034093;28;20223;-68
2021/09/07 03:56:59;;;;;;;19.50;15.77;;;14.40;99.90;;;;;;5034043;28;20410;-68
2021/09/07 03:59:24;;;;;;;19.90;14.90;;;14.40;99.90;;;;;;5034164;28;20905;-69
2021/09/07 04:01:51;;;;;;;18.63;14.30;;;14.30;99.90;;;;;;5034148;28;20218;-68
2021/09/07 04:04:18;;;;;;;22.60;15.77;;;14.30;99.90;;;;;;5033894;28;20605;-69
2021/09/07 04:06:44;;;;;;;17.10;13.77;;;14.20;99.90;;;;;;5033958;28;20406;-68
2021/09/07 04:09:09;;;;;;;24.10;15.77;;;14.20;99.90;;;;;;5034189;28;20405;-69
2021/09/07 04:11:35;;;;;;;22.83;16.20;;;14.20;99.90;;;;;;5034556;28;20179;-68
2021/09/07 04:14:00;;;;;;;19.43;14.30;;;14.20;99.90;;;;;;5034264;28;20195;-69
2021/09/07 04:16:26;;;;;;;22.10;15.27;;;14.20;99.90;;;;;;5033986;28;20594;-69
2021/09/07 04:18:51;;;;;;;25.83;15.97;;;14.30;99.90;;;;;;5034133;28;20167;-68
2021/09/07 04:21:17;;;;;;;21.20;16.00;;;14.30;99.90;;;;;;5033953;28;20179;-69
2021/09/07 04:23:43;;;;;;;22.50;15.63;;;14.20;99.90;;;;;;5015706;28;20621;-69
2021/09/07 04:26:08;;;;;;;21.47;15.20;;;14.10;99.90;;;;;;5033735;28;20414;-69
2021/09/07 04:28:34;;;;;;;19.33;15.03;;;14.10;99.90;;;;;;5033915;28;20172;-69
2021/09/07 04:30:59;;;;;;;27.07;16.50;;;14.10;99.90;;;;;;5033401;28;20172;-69
2021/09/07 04:33:25;;;;;;;24.30;17.73;;;14.10;99.90;;;;;;5033301;28;20198;-69
2021/09/07 04:35:50;;;;;;;18.60;15.47;;;14.10;99.90;;;;;;5032624;28;20581;-68
2021/09/07 04:38:16;;;;;;;19.00;15.90;;;14.10;99.90;;;;;;5033255;28;20258;-68
2021/09/07 04:40:41;;;;;;;20.00;16.20;;;14.00;99.90;;;;;;5033572;28;20618;-69
2021/09/07 04:43:07;;;;;;;21.73;16.27;;;14.00;99.90;;;;;;5033124;28;20192;-68
2021/09/07 04:45:32;;;;;;;19.40;17.33;;;13.90;99.90;;;;;;5033308;28;20192;-69
2021/09/07 04:47:57;;;;;;;21.30;17.10;;;14.00;99.90;;;;;;5033170;28;20191;-69
2021/09/07 04:50:23;;;;;;;19.00;15.53;;;14.10;99.90;;;;;;5033174;28;20623;-69
2021/09/07 04:52:48;;;;;;;20.40;14.93;;;14.00;99.90;;;;;;5033317;28;20278;-69
2021/09/07 04:55:14;;;;;;;21.23;18.93;;;14.10;99.90;;;;;;5033064;28;20187;-69
2021/09/07 04:57:39;;;;;;;24.10;17.33;;;14.20;99.90;;;;;;5033009;28;20180;-69
2021/09/07 05:00:06;;;;;;;20.53;16.07;;;14.30;99.90;;;;;;5033264;28;20660;-68
2021/09/07 05:02:35;;;;;;;23.37;16.90;;;14.50;99.90;;;;;;5033092;28;20582;-69
2021/09/07 05:05:08;;;;;;;21.80;15.70;;;14.60;99.90;;;;;;5032860;28;20506;-69
2021/09/07 05:07:34;;;;;;;20.33;16.43;;;14.70;99.90;;;;;;5032725;28;20506;-68
2021/09/07 05:10:00;;;;;;;23.03;15.80;;;14.80;99.90;;;;;;5032965;28;20497;-69
2021/09/07 05:12:27;;;;;;;22.03;15.53;;;14.80;99.90;;;;;;5032830;28;20176;-68
2021/09/07 05:14:53;;;;;;;19.70;15.20;;;14.90;99.90;;;;;;5033244;28;20402;-69
2021/09/07 05:17:18;;;;;;;27.07;15.70;;;15.00;99.90;;;;;;5032683;28;20412;-69
2021/09/07 05:19:44;;;;;;;22.33;16.40;;;15.00;99.90;;;;;;5032607;28;20628;-69
2021/09/07 05:22:09;;;;;;;20.67;14.20;;;15.10;99.90;;;;;;5032532;28;20198;-69
2021/09/07 05:24:34;;;;;;;15.73;13.77;;;15.20;99.90;;;;;;5032888;28;20254;-69
2021/09/07 05:27:00;;;;;;;19.20;14.50;;;15.30;99.90;;;;;;5032798;28;20184;-68
2021/09/07 05:29:25;;;;;;;19.00;14.50;;;15.30;99.90;;;;;;5033368;28;20204;-70
2021/09/07 05:31:51;;;;;;;16.73;14.07;;;15.40;99.90;;;;;;5032583;28;20513;-70
2021/09/07 05:34:17;;;;;;;16.23;14.53;;;15.60;99.90;;;;;;5032260;28;20238;-68
2021/09/07 05:36:42;;;;;;;18.50;14.40;;;15.70;99.90;;;;;;5032385;28;20179;-68
2021/09/07 05:39:08;;;;;;;13.63;12.23;;;15.90;99.90;;;;;;5032077;28;20494;-67
2021/09/07 05:41:33;;;;;;;16.40;13.50;;;15.90;99.90;;;;;;5032058;28;20695;-69
2021/09/07 05:43:59;;;;;;;18.57;14.10;;;15.90;99.90;;;;;;5031774;28;20544;-67
2021/09/07 05:46:24;;;;;;;16.23;12.80;;;16.10;99.90;;;;;;5031100;28;20169;-67
2021/09/07 05:48:50;;;;;;;15.70;12.90;;;16.50;99.90;;;;;;5031961;28;20224;-67
2021/09/07 05:51:15;;;;;;;20.03;13.00;;;16.80;99.90;;;;;;5031706;28;20593;-67
2021/09/07 05:53:41;;;;;;;17.03;12.20;;;17.20;99.90;;;;;;5031580;28;20199;-67
2021/09/07 05:56:06;;;;;;;14.80;12.30;;;17.30;99.90;;;;;;5031871;28;20176;-68
2021/09/07 05:58:32;;;;;;;15.50;12.70;;;17.70;99.90;;;;;;5031699;28;20659;-69
2021/09/07 06:00:57;;;;;;;13.10;11.70;;;18.00;99.90;;;;;;5032105;28;20268;-69
2021/09/07 06:03:23;;;;;;;14.37;11.93;;;18.70;99.90;;;;;;5031580;28;20300;-68
2021/09/07 06:05:48;;;;;;;12.73;11.33;;;18.80;99.90;;;;;;5031681;28;20174;-67
2021/09/07 06:08:14;;;;;;;13.30;11.07;;;19.40;99.90;;;;;;5031625;28;20187;-69
2021/09/07 06:10:39;;;;;;;19.10;11.97;;;19.10;99.90;;;;;;5031538;28;20176;-68
2021/09/07 06:13:05;;;;;;;12.73;11.13;;;19.40;99.90;;;;;;5031433;28;20185;-68
2021/09/07 06:15:31;;;;;;;19.97;12.40;;;19.70;99.90;;;;;;5031437;28;20167;-67
2021/09/07 06:17:57;;;;;;;15.07;10.80;;;20.10;99.90;;;;;;5031659;28;20417;-68
2021/09/07 06:20:23;;;;;;;15.00;11.27;;;20.10;99.90;;;;;;5031835;28;20901;-69
2021/09/07 06:22:49;;;;;;;13.27;9.70;;;20.50;99.90;;;;;;5031259;28;20183;-68
2021/09/07 06:25:14;;;;;;;13.00;10.17;;;20.80;99.90;;;;;;5031492;28;20503;-68
2021/09/07 06:27:40;;;;;;;10.90;9.80;;;21.20;99.90;;;;;;5031286;28;20234;-68
2021/09/07 06:30:06;;;;;;;11.13;9.50;;;21.80;99.90;;;;;;5031181;28;20180;-68
2021/09/07 06:32:32;;;;;;;13.23;10.57;;;21.50;99.90;;;;;;5031038;28;20866;-68
2021/09/07 06:34:59;;;;;;;15.90;10.67;;;21.10;99.90;;;;;;5031417;28;20460;-67
2021/09/07 06:37:25;;;;;;;12.00;10.60;;;21.20;99.90;;;;;;5031220;28;20171;-67
2021/09/07 06:39:50;;;;;;;13.40;10.80;;;21.20;99.90;;;;;;5031148;28;20500;-67
2021/09/07 06:42:16;;;;;;;11.33;9.70;;;20.40;99.90;;;;;;5031160;28;20304;-68
2021/09/07 06:44:41;;;;;;;14.10;9.80;;;20.80;99.90;;;;;;5030909;28;20212;-69
2021/09/07 06:47:07;;;;;;;15.57;10.43;;;20.50;99.90;;;;;;5031230;28;20171;-68
2021/09/07 06:49:32;;;;;;;17.77;14.20;;;20.70;99.90;;;;;;5013596;28;20719;-68
2021/09/07 06:51:58;;;;;;;15.33;11.07;;;20.70;99.90;;;;;;5031375;28;20186;-68
2021/09/07 06:54:23;;;;;;;12.60;11.07;;;20.60;99.90;;;;;;5031485;28;20700;-68
2021/09/07 06:56:49;;;;;;;19.23;10.27;;;21.00;99.90;;;;;;5031103;28;20185;-68
2021/09/07 06:59:14;;;;;;;11.13;9.90;;;21.50;99.90;;;;;;5034016;28;20206;-68
2021/09/07 07:01:39;;;;;;;11.83;9.60;;;22.20;99.90;;;;;;5035000;28;20186;-68
2021/09/07 07:04:05;;;;;;;11.53;8.90;;;21.90;99.90;;;;;;5034870;28;20596;-68
2021/09/07 07:06:30;;;;;;;12.23;10.60;;;22.30;99.90;;;;;;5035099;28;20202;-68
2021/09/07 07:08:56;;;;;;;11.30;9.70;;;22.40;99.90;;;;;;5035260;28;20220;-68
2021/09/07 07:11:21;;;;;;;10.47;8.47;;;22.50;99.90;;;;;;5035011;28;20646;-68
2021/09/07 07:13:47;;;;;;;12.80;9.20;;;22.30;99.90;;;;;;5034876;28;20592;-67
2021/09/07 07:16:12;;;;;;;10.80;8.60;;;22.50;99.90;;;;;;5035090;28;20171;-67
2021/09/07 07:18:38;;;;;;;10.90;8.30;;;24.00;99.90;;;;;;5035358;28;20221;-68
2021/09/07 07:21:03;;;;;;;8.77;7.57;;;24.30;99.90;;;;;;5035138;28;20164;-68
2021/09/07 07:23:29;;;;;;;9.33;8.43;;;24.00;99.90;;;;;;5034664;28;20208;-69
2021/09/07 07:25:54;;;;;;;9.00;7.90;;;23.90;99.90;;;;;;5017053;28;20199;-69
2021/09/07 07:28:20;;;;;;;10.90;7.90;;;24.20;99.90;;;;;;5034747;28;20172;-69
2021/09/07 07:30:45;;;;;;;8.73;7.87;;;24.60;99.90;;;;;;5034542;28;20700;-69
2021/09/07 07:33:11;;;;;;;9.23;8.30;;;24.20;99.90;;;;;;5034509;28;20195;-69
2021/09/07 07:35:36;;;;;;;9.80;8.20;;;24.40;99.90;;;;;;5034750;28;20246;-69
2021/09/07 07:38:02;;;;;;;9.30;6.70;;;24.70;99.90;;;;;;5034698;28;20539;-68
2021/09/07 07:40:28;;;;;;;11.90;8.07;;;24.20;99.90;;;;;;5034552;28;20498;-68
2021/09/07 07:42:53;;;;;;;8.90;7.33;;;23.80;99.90;;;;;;5016627;28;20274;-68
2021/09/07 07:45:19;;;;;;;9.53;7.33;;;23.30;99.90;;;;;;5034102;28;20191;-69
2021/09/07 07:47:44;;;;;;;8.13;6.90;;;24.20;99.90;;;;;;5034465;28;20168;-68
2021/09/07 07:50:11;;;;;;;7.20;6.50;;;25.10;99.90;;;;;;5034305;28;20602;-69
2021/09/07 07:52:36;;;;;;;8.07;7.20;;;24.90;99.90;;;;;;5034112;28;20176;-68
2021/09/07 07:55:02;;;;;;;7.00;6.30;;;24.00;99.90;;;;;;5034093;28;20920;-68
2021/09/07 07:57:27;;;;;;;7.10;6.30;;;23.50;99.90;;;;;;5034327;28;20579;-70
2021/09/07 07:59:53;;;;;;;6.20;5.33;;;23.60;99.90;;;;;;5034472;28;20664;-70
2021/09/07 08:02:18;;;;;;;6.67;5.57;;;25.10;99.90;;;;;;5034379;28;20246;-71
2021/09/07 08:04:44;;;;;;;7.40;5.80;;;25.10;99.90;;;;;;5034480;28;20211;-70
2021/09/07 08:07:09;;;;;;;8.53;6.70;;;24.50;99.90;;;;;;5034509;28;20176;-70
2021/09/07 08:09:35;;;;;;;7.40;6.60;;;24.30;99.90;;;;;;5033414;28;20178;-71
2021/09/07 08:12:01;;;;;;;8.80;6.37;;;24.20;99.90;;;;;;5034118;28;20609;-70
2021/09/07 08:14:27;;;;;;;7.17;5.67;;;24.20;99.90;;;;;;5034390;28;20683;-70
2021/09/07 08:16:52;;;;;;;7.80;6.50;;;24.60;99.90;;;;;;5034389;28;20410;-71
2021/09/07 08:19:18;;;;;;;13.53;7.07;;;24.80;99.90;;;;;;5034396;28;20178;-70
2021/09/07 08:21:44;;;;;;;7.67;6.63;;;25.60;99.90;;;;;;5034040;28;20171;-70
2021/09/07 08:24:10;;;;;;;7.70;7.00;;;26.00;99.90;;;;;;5034329;28;20253;-70
2021/09/07 08:26:35;;;;;;;8.23;7.30;;;25.70;99.90;;;;;;5034273;28;20172;-69
2021/09/07 08:29:01;;;;;;;9.77;7.30;;;25.90;99.90;;;;;;5033384;28;20178;-67
2021/09/07 08:31:26;;;;;;;10.37;8.60;;;25.90;99.90;;;;;;5033366;28;20199;-67
2021/09/07 08:33:52;;;;;;;8.90;8.00;;;24.80;99.90;;;;;;5033298;28;20214;-68
2021/09/07 08:36:17;;;;;;;8.47;7.57;;;24.80;99.90;;;;;;5033761;28;20172;-67
2021/09/07 08:38:43;;;;;;;9.43;8.40;;;25.70;99.90;;;;;;5033654;28;20178;-68
2021/09/07 08:41:08;;;;;;;10.03;7.77;;;26.40;99.90;;;;;;5033134;28;20171;-68
2021/09/07 08:43:35;;;;;;;9.17;8.33;;;25.30;99.90;;;;;;5032978;28;20310;-68
2021/09/07 08:46:01;;;;;;;9.20;8.03;;;26.40;99.90;;;;;;5033641;28;20254;-69
2021/09/07 08:48:26;;;;;;;9.37;8.47;;;26.30;99.90;;;;;;5033143;28;20488;-68
2021/09/07 08:50:54;;;;;;;9.40;8.50;;;25.40;99.90;;;;;;5033273;28;20166;-68
2021/09/07 08:53:20;;;;;;;8.37;7.57;;;25.50;99.90;;;;;;5033019;28;20205;-67
2021/09/07 08:55:46;;;;;;;9.30;8.30;;;25.30;99.90;;;;;;5033049;28;20411;-68
2021/09/07 08:58:11;;;;;;;10.23;8.83;;;25.20;99.90;;;;;;5032703;28;20404;-68
2021/09/07 09:00:37;;;;;;;9.33;8.33;;;25.20;99.90;;;;;;5033030;28;20206;-68
2021/09/07 09:03:13;;;;;;;9.60;8.53;;;24.70;99.90;;;;;;5032654;28;20613;-68
2021/09/07 09:05:49;;;;;;;12.27;8.20;;;25.30;99.90;;;;;;5032881;28;20171;-68
2021/09/07 09:08:17;;;;;;;8.90;7.70;;;25.40;99.90;;;;;;5032664;28;20402;-67
2021/09/07 09:10:44;;;;;;;10.37;8.33;;;24.70;99.90;;;;;;5032701;28;20461;-67
2021/09/07 09:13:12;;;;;;;16.47;8.83;;;25.00;99.90;;;;;;5032368;28;20457;-68
2021/09/07 09:15:38;;;;;;;10.27;9.03;;;24.00;99.90;;;;;;5032780;28;20937;-68
2021/09/07 09:18:11;;;;;;;12.10;9.10;;;24.80;99.90;;;;;;5033098;28;20781;-67
2021/09/07 09:20:39;;;;;;;11.90;9.10;;;24.80;99.90;;;;;;5032649;28;20822;-68
2021/09/07 09:23:06;;;;;;;9.17;8.27;;;25.00;99.90;;;;;;5032416;28;20421;-67
2021/09/07 09:25:38;;;;;;;8.53;7.73;;;25.00;99.90;;;;;;5032760;28;20442;-70
2021/09/07 09:28:04;;;;;;;9.03;8.10;;;24.50;99.90;;;;;;5032477;28;20815;-68
2021/09/07 09:30:34;;;;;;;9.83;8.83;;;24.50;99.90;;;;;;5032471;28;20403;-68
2021/09/07 09:33:00;;;;;;;8.77;7.73;;;23.90;99.90;;;;;;5032479;28;20199;-68
2021/09/07 09:35:26;;;;;;;10.40;8.10;;;24.00;99.90;;;;;;5032442;28;20433;-68
2021/09/07 09:38:10;;;;;;;9.40;7.63;;;23.90;99.90;;;;;;5032115;28;20171;-68
2021/09/07 09:40:36;;;;;;;8.30;7.50;;;24.00;99.90;;;;;;5014364;28;20908;-68
2021/09/07 09:43:21;;;;;;;10.80;8.70;;;23.80;99.90;;;;;;5031987;28;20457;-68
2021/09/07 09:45:47;;;;;;;10.43;9.30;;;23.50;99.90;;;;;;5031981;28;20723;-68
2021/09/07 09:48:24;;;;;;;9.20;8.30;;;23.40;99.90;;;;;;5031847;28;20501;-68
2021/09/07 09:50:51;;;;;;;11.10;8.90;;;23.30;99.90;;;;;;5032208;28;20229;-69
2021/09/07 09:53:18;;;;;;;9.47;8.37;;;22.30;99.90;;;;;;5032096;28;20801;-69
2021/09/07 09:55:44;;;;;;;14.93;8.80;;;23.30;99.90;;;;;;5032028;28;20417;-68
2021/09/07 09:58:10;;;;;;;9.10;8.20;;;23.80;99.90;;;;;;5032020;28;20409;-68
2021/09/07 10:00:36;;;;;;;9.17;7.90;;;23.20;99.90;;;;;;5032548;28;20647;-68
2021/09/07 10:03:01;;;;;;;9.67;8.30;;;23.40;99.90;;;;;;5032044;28;20525;-68
2021/09/07 10:05:27;;;;;;;10.80;9.70;;;23.50;99.90;;;;;;5032160;28;20547;-68
2021/09/07 10:07:53;;;;;;;9.73;8.03;;;23.00;99.90;;;;;;5032080;28;20180;-68
2021/09/07 10:10:20;;;;;;;10.50;7.40;;;22.50;99.90;;;;;;5032119;28;20966;-67
2021/09/07 10:12:55;;;;;;;9.27;8.43;;;22.50;99.90;;;;;;5032041;28;20615;-68
2021/09/07 10:18:43;;;;;;;10.70;8.20;;;22.60;99.90;;;;;;5031717;28;20420;-68
2021/09/07 10:24:03;;;;;;;9.20;8.30;;;22.70;99.90;;;;;;5031583;28;20465;-69
2021/09/07 10:26:38;;;;;;;10.70;7.57;;;22.60;99.90;;;;;;5031583;28;20418;-68
2021/09/07 10:29:08;;;;;;;10.67;7.57;;;22.30;99.90;;;;;;5031450;28;20453;-69
2021/09/07 10:31:54;;;;;;;9.73;8.73;;;22.20;99.90;;;;;;5031467;28;20432;-69
2021/09/07 10:34:26;;;;;;;8.40;7.60;;;22.60;99.90;;;;;;5030785;28;20428;-69
2021/09/07 10:36:57;;;;;;;7.67;6.57;;;23.00;99.90;;;;;;5031199;28;20794;-68
2021/09/07 10:39:30;;;;;;;8.17;7.13;;;22.90;99.90;;;;;;5031300;28;20425;-68
2021/09/07 10:41:56;;;;;;;6.67;5.80;;;22.90;99.90;;;;;;5031167;28;20433;-68
2021/09/07 10:44:42;;;;;;;7.60;6.33;;;22.30;99.90;;;;;;5031178;28;20607;-70
2021/09/07 10:47:13;;;;;;;6.63;5.90;;;22.50;99.90;;;;;;5031426;28;20610;-68
2021/09/07 10:49:52;;;;;;;7.00;6.30;;;22.40;99.90;;;;;;5031126;28;20398;-68
2021/09/07 10:52:26;;;;;;;7.13;6.40;;;22.50;99.90;;;;;;5030973;28;20440;-68
2021/09/07 10:55:06;;;;;;;8.20;6.30;;;22.30;99.90;;;;;;5030782;28;20427;-68
2021/09/07 10:57:31;;;;;;;8.10;6.53;;;22.50;99.90;;;;;;5031154;28;20435;-68
2021/09/07 10:59:58;;;;;;;10.17;7.20;;;22.70;99.90;;;;;;5031156;28;20940;-69
2021/09/07 11:02:31;;;;;;;10.17;7.00;;;22.60;99.90;;;;;;5031094;28;20171;-70
2021/09/07 11:04:58;;;;;;;7.90;5.70;;;22.20;99.90;;;;;;5031119;28;20486;-70
2021/09/07 11:07:40;;;;;;;9.70;6.17;;;22.20;99.90;;;;;;5030935;28;20410;-71
2021/09/07 11:10:26;;;;;;;7.40;6.10;;;22.30;99.90;;;;;;5031362;28;20396;-69
2021/09/07 11:12:57;;;;;;;6.00;5.40;;;22.10;99.90;;;;;;5031142;28;20435;-69
2021/09/07 11:15:25;;;;;;;8.53;5.57;;;22.20;99.90;;;;;;5030908;28;20443;-69
2021/09/07 11:17:55;;;;;;;7.40;5.80;;;22.30;99.90;;;;;;5030831;28;20404;-69
2021/09/07 11:20:25;;;;;;;7.47;5.93;;;21.90;99.90;;;;;;5031035;28;20930;-68
2021/09/07 11:22:51;;;;;;;9.57;6.33;;;22.00;99.90;;;;;;5030799;28;20424;-67
2021/09/07 11:25:18;;;;;;;8.37;6.77;;;22.10;99.90;;;;;;5030738;28;20459;-69
2021/09/07 11:28:00;;;;;;;7.30;5.80;;;22.40;99.90;;;;;;5030899;28;20198;-66
2021/09/07 11:30:42;;;;;;;7.30;6.00;;;22.80;99.90;;;;;;5030740;28;20411;-67
2021/09/07 11:33:13;;;;;;;6.83;6.17;;;23.30;99.90;;;;;;5030849;28;20484;-69
2021/09/07 11:35:42;;;;;;;7.33;5.73;;;22.90;99.90;;;;;;5030764;28;20456;-67
2021/09/07 11:38:10;;;;;;;9.27;6.30;;;22.90;99.90;;;;;;5030614;28;20504;-68
2021/09/07 11:40:44;;;;;;;6.70;5.83;;;22.70;99.90;;;;;;5030869;28;20918;-68
2021/09/07 11:43:10;;;;;;;8.30;6.50;;;22.60;99.90;;;;;;5030853;28;20438;-68
2021/09/07 11:45:36;;;;;;;12.57;7.23;;;22.40;99.90;;;;;;5033651;28;20458;-68
2021/09/07 11:48:03;;;;;;;8.53;6.30;;;22.50;99.90;;;;;;5034437;28;20773;-67
2021/09/07 11:50:35;;;;;;;9.93;6.80;;;22.70;99.90;;;;;;5034251;28;20980;-68
2021/09/07 11:53:05;;;;;;;7.17;6.47;;;22.30;99.90;;;;;;5033998;28;20432;-68
2021/09/07 11:55:48;;;;;;;7.63;6.50;;;22.20;99.90;;;;;;5033980;28;20437;-68
2021/09/07 11:58:26;;;;;;;8.17;6.00;;;22.30;99.90;;;;;;5034204;28;20496;-67
2021/09/07 12:01:00;;;;;;;6.77;6.10;;;22.50;99.90;;;;;;5034089;28;20463;-68
2021/09/07 12:03:34;;;;;;;10.97;6.83;;;22.60;99.90;;;;;;5034552;28;20799;-68
2021/09/07 12:06:00;;;;;;;12.30;7.20;;;22.90;99.90;;;;;;5034630;28;20407;-69
2021/09/07 12:08:40;;;;;;;8.33;6.50;;;22.60;99.90;;;;;;5033903;28;20492;-69
2021/09/07 12:11:08;;;;;;;8.27;7.37;;;22.50;99.90;;;;;;5034193;28;20909;-69
2021/09/07 12:13:34;;;;;;;9.00;6.10;;;22.70;99.90;;;;;;5034210;28;20457;-68
2021/09/07 12:16:01;;;;;;;9.00;6.50;;;22.60;99.90;;;;;;5033853;28;20423;-68
2021/09/07 12:18:28;;;;;;;8.63;6.50;;;22.30;99.90;;;;;;5033814;28;20463;-68
2021/09/07 12:21:26;;;;;;;6.67;5.90;;;22.20;99.90;;;;;;5033648;28;20492;-68
2021/09/07 12:23:54;;;;;;;8.93;6.10;;;22.30;99.90;;;;;;5021564;28;20458;-68
2021/09/07 12:26:40;;;;;;;12.53;7.77;;;22.40;99.90;;;;;;5033588;28;20406;-68
2021/09/07 12:29:16;;;;;;;8.03;7.23;;;22.20;99.90;;;;;;5033534;28;20394;-68
2021/09/07 12:31:43;;;;;;;13.47;7.50;;;22.30;99.90;;;;;;5033464;28;20401;-68
2021/09/07 12:34:09;;;;;;;10.17;6.53;;;22.30;99.90;;;;;;5033386;28;20426;-68
2021/09/07 12:37:03;;;;;;;8.50;7.27;;;22.50;99.90;;;;;;5033490;28;20430;-69
2021/09/07 12:39:29;;;;;;;7.73;6.93;;;22.30;99.90;;;;;;5020308;28;20253;-68
2021/09/07 12:41:54;;;;;;;7.30;6.37;;;22.60;99.90;;;;;;5033384;28;20659;-68